createdAt,value
2019-02-06T00:02:57.440Z,20.57
2019-02-06T00:06:13.114Z,20.83
2019-02-06T00:09:28.370Z,21.87
2019-02-06T00:12:43.818Z,18.80
2019-02-06T00:15:59.467Z,18.17
2019-02-06T00:19:14.985Z,18.63
2019-02-06T00:22:30.147Z,17.97
2019-02-06T00:25:47.614Z,20.50
2019-02-06T00:29:03.039Z,20.17
2019-02-06T00:32:18.699Z,18.40
2019-02-06T00:35:34.358Z,16.30
2019-02-06T00:38:50.363Z,16.80
2019-02-06T00:42:06.081Z,17.87
2019-02-06T00:45:21.851Z,17.10
2019-02-06T00:48:37.202Z,17.20
2019-02-06T00:51:52.851Z,19.13
2019-02-06T00:55:08.292Z,17.23
2019-02-06T00:58:26.053Z,18.60
2019-02-06T01:01:41.466Z,18.07
2019-02-06T01:04:57.347Z,18.93
2019-02-06T01:08:13.382Z,17.57
2019-02-06T01:11:29.094Z,17.60
2019-02-06T01:14:44.538Z,17.43
2019-02-06T01:17:59.972Z,17.33
2019-02-06T01:21:15.643Z,17.57
2019-02-06T01:24:31.598Z,17.97
2019-02-06T01:27:47.056Z,18.80
2019-02-06T01:31:21.543Z,16.50
2019-02-06T01:34:36.902Z,17.00
2019-02-06T01:37:52.661Z,17.73
2019-02-06T01:41:08.019Z,17.57
2019-02-06T01:44:23.371Z,15.17
2019-02-06T01:47:39.457Z,17.37
2019-02-06T01:50:55.202Z,16.87
2019-02-06T01:54:10.558Z,17.60
2019-02-06T01:57:25.909Z,14.97
2019-02-06T02:00:41.454Z,15.13
2019-02-06T02:03:56.819Z,17.73
2019-02-06T02:07:12.377Z,19.73
2019-02-06T02:10:27.627Z,19.60
2019-02-06T02:13:43.171Z,15.93
2019-02-06T02:16:58.702Z,16.13
2019-02-06T02:20:16.484Z,17.47
2019-02-06T02:23:31.695Z,16.00
2019-02-06T02:26:47.064Z,14.13
2019-02-06T02:30:03.473Z,13.93
2019-02-06T02:33:19.078Z,13.97
2019-02-06T02:36:34.642Z,14.30
2019-02-06T02:39:49.903Z,14.40
2019-02-06T02:43:05.558Z,16.10
2019-02-06T02:46:20.896Z,26.73
2019-02-06T02:49:36.159Z,36.63
2019-02-06T02:52:51.314Z,34.40
2019-02-06T02:56:06.754Z,37.60
2019-02-06T02:59:22.015Z,44.77
2019-02-06T03:02:58.241Z,30.67
2019-02-06T03:06:13.564Z,26.77
2019-02-06T03:09:29.047Z,20.33
2019-02-06T03:12:44.705Z,22.67
2019-02-06T03:16:00.059Z,20.77
2019-02-06T03:19:15.412Z,22.73
2019-02-06T03:22:32.961Z,18.17
2019-02-06T03:25:48.371Z,15.80
2019-02-06T03:29:03.727Z,15.03
2019-02-06T03:32:19.394Z,14.80
2019-02-06T03:35:35.032Z,13.20
2019-02-06T03:38:50.639Z,14.17
2019-02-06T03:42:05.919Z,15.00
2019-02-06T03:45:21.113Z,14.80
2019-02-06T03:48:36.247Z,13.03
2019-02-06T03:51:51.907Z,12.40
2019-02-06T03:55:07.020Z,14.37
2019-02-06T03:58:22.276Z,12.13
2019-02-06T04:01:37.759Z,11.30
2019-02-06T04:05:10.993Z,11.10
2019-02-06T04:08:26.476Z,10.23
2019-02-06T04:11:41.826Z,12.83
2019-02-06T04:14:57.186Z,11.67
2019-02-06T04:18:12.534Z,12.03
2019-02-06T04:21:28.299Z,12.30
2019-02-06T04:24:43.842Z,12.27
2019-02-06T04:27:59.514Z,12.10
2019-02-06T04:31:14.869Z,17.20
2019-02-06T04:34:30.421Z,10.97
2019-02-06T04:37:46.073Z,11.83
2019-02-06T04:41:01.540Z,11.47
2019-02-06T04:44:17.039Z,12.43
2019-02-06T04:47:32.447Z,12.20
2019-02-06T04:50:48.006Z,12.37
2019-02-06T04:54:03.379Z,11.23
2019-02-06T04:57:18.811Z,11.77
2019-02-06T05:00:34.063Z,11.33
2019-02-06T05:03:49.414Z,11.47
2019-02-06T05:07:05.123Z,10.83
2019-02-06T05:10:20.641Z,11.90
2019-02-06T05:13:36.290Z,13.53
2019-02-06T05:16:51.701Z,13.97
2019-02-06T05:20:12.774Z,15.83
2019-02-06T05:23:28.077Z,11.17
2019-02-06T05:26:43.430Z,11.00
2019-02-06T05:29:58.788Z,10.23
2019-02-06T05:33:13.949Z,10.47
2019-02-06T05:36:29.872Z,11.20
2019-02-06T05:39:45.047Z,10.67
2019-02-06T05:43:00.505Z,10.63
2019-02-06T05:46:16.060Z,10.33
2019-02-06T05:49:33.387Z,10.43
2019-02-06T05:52:49.515Z,11.33
2019-02-06T05:56:04.471Z,12.63
2019-02-06T05:59:20.030Z,11.53
2019-02-06T06:02:35.518Z,10.50
2019-02-06T06:05:51.032Z,10.37
2019-02-06T06:09:07.628Z,9.43
2019-02-06T06:12:23.493Z,10.23
2019-02-06T06:15:39.060Z,10.93
2019-02-06T06:18:54.501Z,11.73
2019-02-06T06:22:10.067Z,11.37
2019-02-06T06:25:25.720Z,10.23
2019-02-06T06:28:40.878Z,41.23
2019-02-06T06:31:56.236Z,13.33
2019-02-06T06:35:11.527Z,14.87
2019-02-06T06:38:26.928Z,17.00
2019-02-06T06:41:42.383Z,12.07
2019-02-06T06:44:57.835Z,21.90
2019-02-06T06:48:13.292Z,29.73
2019-02-06T06:51:28.529Z,19.97
2019-02-06T06:54:43.788Z,16.53
2019-02-06T06:57:59.257Z,16.80
2019-02-06T07:01:14.800Z,14.20
2019-02-06T07:04:30.012Z,21.40
2019-02-06T07:07:45.819Z,28.30
2019-02-06T07:11:01.647Z,19.23
2019-02-06T07:14:17.116Z,15.43
2019-02-06T07:17:32.596Z,20.03
2019-02-06T07:20:48.044Z,19.60
2019-02-06T07:24:03.601Z,15.50
2019-02-06T07:27:21.087Z,15.30
2019-02-06T07:30:36.188Z,23.17
2019-02-06T07:33:52.164Z,16.30
2019-02-06T07:37:09.150Z,16.40
2019-02-06T07:40:24.516Z,39.37
2019-02-06T07:43:40.719Z,16.37
2019-02-06T07:46:56.078Z,19.50
2019-02-06T07:50:20.038Z,15.67
2019-02-06T07:53:35.288Z,14.63
2019-02-06T07:56:50.535Z,16.60
2019-02-06T08:00:06.467Z,15.70
2019-02-06T08:03:22.181Z,18.73
2019-02-06T08:06:37.236Z,20.10
2019-02-06T08:09:52.762Z,21.27
2019-02-06T08:13:08.156Z,23.97
2019-02-06T08:16:24.284Z,26.10
2019-02-06T08:19:39.758Z,25.03
2019-02-06T08:22:55.297Z,19.87
2019-02-06T08:26:10.753Z,22.20
2019-02-06T08:29:26.086Z,21.53
2019-02-06T08:32:59.678Z,17.00
2019-02-06T08:36:15.244Z,16.40
2019-02-06T08:39:30.482Z,29.40
2019-02-06T08:42:47.750Z,23.20
2019-02-06T08:46:03.274Z,22.20
2019-02-06T08:49:18.486Z,20.83
2019-02-06T08:52:34.042Z,20.63
2019-02-06T08:55:49.650Z,20.53
2019-02-06T08:59:04.747Z,17.47
2019-02-06T09:02:19.905Z,18.50
2019-02-06T09:05:35.302Z,18.43
2019-02-06T09:08:59.184Z,22.37
2019-02-06T09:12:08.923Z,21.37
2019-02-06T09:15:42.810Z,23.57
2019-02-06T09:18:58.153Z,22.57
2019-02-06T09:22:13.286Z,22.77
2019-02-06T09:25:28.023Z,22.30
2019-02-06T09:28:44.003Z,20.23
2019-02-06T09:31:59.587Z,17.13
2019-02-06T09:35:14.800Z,18.90
2019-02-06T09:38:30.566Z,18.80
2019-02-06T09:41:45.831Z,20.17
2019-02-06T09:45:01.203Z,20.80
2019-02-06T09:48:16.597Z,21.40
2019-02-06T09:51:31.988Z,20.53
2019-02-06T09:54:47.251Z,20.50
2019-02-06T09:58:02.800Z,17.47
2019-02-06T10:01:21.279Z,15.73
2019-02-06T10:04:35.748Z,18.73
2019-02-06T10:07:51.247Z,16.10
2019-02-06T10:11:06.665Z,14.60
2019-02-06T10:14:21.830Z,15.67
2019-02-06T10:17:37.801Z,15.17
2019-02-06T10:20:53.465Z,14.50
2019-02-06T10:24:08.943Z,15.73
2019-02-06T10:27:24.558Z,14.20
2019-02-06T10:30:42.531Z,15.00
2019-02-06T10:33:58.184Z,13.90
2019-02-06T10:37:14.095Z,14.73
2019-02-06T10:40:30.356Z,14.07
2019-02-06T10:43:45.628Z,14.67
2019-02-06T10:47:00.874Z,13.37
2019-02-06T10:50:18.624Z,13.73
2019-02-06T10:53:33.686Z,12.63
2019-02-06T10:56:49.279Z,13.43
2019-02-06T11:00:09.389Z,13.67
2019-02-06T11:03:25.587Z,14.83
2019-02-06T11:06:40.869Z,14.30
2019-02-06T11:09:56.121Z,14.57
2019-02-06T11:13:10.925Z,14.53
2019-02-06T11:16:26.306Z,15.13
2019-02-06T11:19:43.107Z,15.00
2019-02-06T11:22:58.749Z,15.45
2019-02-06T11:26:14.111Z,14.40
2019-02-06T11:29:29.563Z,14.30
2019-02-06T11:32:44.682Z,14.23
2019-02-06T11:36:00.166Z,14.63
2019-02-06T11:39:21.724Z,14.70
2019-02-06T11:42:37.324Z,15.17
2019-02-06T11:45:52.788Z,13.73
2019-02-06T11:49:08.008Z,13.90
2019-02-06T11:52:23.394Z,13.10
2019-02-06T11:55:39.088Z,16.67
2019-02-06T11:58:54.520Z,16.50
2019-02-06T12:02:10.181Z,17.93
2019-02-06T12:05:25.362Z,15.63
2019-02-06T12:08:41.497Z,16.20
2019-02-06T12:11:57.114Z,17.00
2019-02-06T12:15:16.532Z,17.53
2019-02-06T12:18:32.183Z,17.70
2019-02-06T12:21:47.590Z,19.70
2019-02-06T12:25:03.164Z,18.77
2019-02-06T12:28:18.655Z,20.23
2019-02-06T12:31:34.256Z,20.40
2019-02-06T12:34:49.678Z,19.27
2019-02-06T12:38:05.842Z,19.73
2019-02-06T12:41:20.915Z,19.77
2019-02-06T12:44:35.715Z,18.77
2019-02-06T12:47:51.033Z,18.93
2019-02-06T12:51:06.597Z,19.73
2019-02-06T12:54:22.151Z,19.23
2019-02-06T12:57:37.618Z,19.17
2019-02-06T13:00:53.059Z,19.97
2019-02-06T13:04:08.517Z,19.07
2019-02-06T13:07:23.672Z,19.83
2019-02-06T13:10:41.082Z,20.43
2019-02-06T13:13:56.442Z,20.37
2019-02-06T13:17:11.778Z,20.33
2019-02-06T13:20:27.260Z,21.00
2019-02-06T13:23:43.461Z,21.50
2019-02-06T13:26:58.671Z,22.27
2019-02-06T13:30:20.072Z,21.40
2019-02-06T13:33:36.115Z,23.43
2019-02-06T13:36:51.468Z,22.90
2019-02-06T13:40:09.155Z,22.73
2019-02-06T13:43:24.501Z,22.10
2019-02-06T13:46:40.101Z,22.83
2019-02-06T13:49:55.439Z,22.90
2019-02-06T13:53:11.391Z,22.53
2019-02-06T13:56:26.450Z,23.73
2019-02-06T13:59:41.721Z,22.40
2019-02-06T14:02:56.958Z,22.77
2019-02-06T14:06:12.496Z,22.03
2019-02-06T14:09:28.073Z,22.87
2019-02-06T14:12:43.821Z,25.03
2019-02-06T14:15:59.389Z,24.13
2019-02-06T14:19:14.462Z,23.33
2019-02-06T14:22:29.897Z,23.17
2019-02-06T14:26:28.434Z,21.77
2019-02-06T14:30:19.015Z,22.20
2019-02-06T14:33:59.622Z,22.60
2019-02-06T14:37:41.405Z,22.43
2019-02-06T14:41:28.740Z,21.30
2019-02-06T14:45:10.372Z,21.97
2019-02-06T14:49:08.009Z,21.03
2019-02-06T14:52:43.294Z,22.97
2019-02-06T14:56:15.566Z,22.37
2019-02-06T14:59:44.828Z,22.30
2019-02-06T15:03:41.222Z,23.20
2019-02-06T15:07:34.713Z,25.13
2019-02-06T15:11:25.868Z,24.27
2019-02-06T15:15:11.246Z,25.87
2019-02-06T15:18:54.288Z,25.67
2019-02-06T15:22:41.053Z,24.70
2019-02-06T15:26:30.199Z,25.80
2019-02-06T15:30:18.840Z,26.83
2019-02-06T15:33:43.495Z,27.40
2019-02-06T15:37:23.695Z,26.43
2019-02-06T15:41:31.901Z,26.70
2019-02-06T15:45:23.787Z,26.37
2019-02-06T15:49:09.521Z,26.83
2019-02-06T15:52:53.627Z,27.03
2019-02-06T15:56:39.214Z,36.23
2019-02-06T16:00:21.728Z,32.37
2019-02-06T16:04:34.812Z,28.70
2019-02-06T16:08:18.172Z,29.33
2019-02-06T16:11:42.890Z,39.23
2019-02-06T16:15:19.861Z,40.73
2019-02-06T16:19:03.402Z,29.90
2019-02-06T16:23:19.024Z,28.73
2019-02-06T16:27:14.691Z,33.17
2019-02-06T16:31:09.750Z,28.27
2019-02-06T16:35:06.960Z,29.20
2019-02-06T16:38:54.752Z,29.37
2019-02-06T16:42:23.927Z,30.80
2019-02-06T16:46:31.763Z,30.50
2019-02-06T16:50:10.253Z,32.23
2019-02-06T16:53:53.230Z,32.13
2019-02-06T16:57:55.071Z,54.17
2019-02-06T17:01:53.682Z,50.00
2019-02-06T17:05:40.151Z,72.27
2019-02-06T17:09:16.860Z,35.47
2019-02-06T17:12:44.002Z,35.03
2019-02-06T17:16:25.253Z,35.53
2019-02-06T17:20:14.313Z,36.33
2019-02-06T17:24:00.374Z,41.87
2019-02-06T17:28:11.548Z,42.27
2019-02-06T17:32:02.152Z,50.93
2019-02-06T17:35:44.068Z,67.97
2019-02-06T17:39:55.619Z,44.30
2019-02-06T17:43:27.083Z,35.20
2019-02-06T17:47:11.434Z,31.53
2019-02-06T17:50:38.763Z,35.63
2019-02-06T17:54:15.653Z,55.30
2019-02-06T17:57:31.581Z,37.33
2019-02-06T18:01:14.755Z,41.47
2019-02-06T18:04:41.882Z,56.33
2019-02-06T18:07:57.447Z,37.40
2019-02-06T18:11:12.992Z,35.53
2019-02-06T18:14:28.572Z,35.43
2019-02-06T18:17:44.229Z,49.80
2019-02-06T18:20:59.577Z,42.20
2019-02-06T18:24:14.734Z,39.90
2019-02-06T18:27:30.033Z,35.53
2019-02-06T18:30:45.722Z,50.93
2019-02-06T18:34:02.238Z,38.47
2019-02-06T18:37:17.870Z,34.23
2019-02-06T18:40:33.216Z,38.70
2019-02-06T18:43:48.379Z,65.33
2019-02-06T18:47:04.445Z,46.50
2019-02-06T18:50:19.915Z,44.47
2019-02-06T18:53:35.658Z,37.13
2019-02-06T18:57:27.387Z,34.83
2019-02-06T19:01:30.338Z,38.90
2019-02-06T19:04:45.738Z,42.43
2019-02-06T19:08:01.087Z,33.13
2019-02-06T19:11:16.228Z,32.50
2019-02-06T19:14:31.599Z,34.70
2019-02-06T19:17:46.736Z,50.93
2019-02-06T19:21:02.286Z,45.60
2019-02-06T19:24:17.965Z,44.60
2019-02-06T19:27:33.924Z,33.53
2019-02-06T19:30:49.273Z,29.47
2019-02-06T19:34:04.390Z,31.20
2019-02-06T19:37:20.181Z,42.50
2019-02-06T19:40:36.218Z,33.80
2019-02-06T19:43:51.844Z,35.40
2019-02-06T19:47:06.982Z,55.43
2019-02-06T19:50:23.368Z,69.17
2019-02-06T19:53:38.599Z,58.67
2019-02-06T19:56:54.287Z,35.03
2019-02-06T20:00:12.645Z,36.07
2019-02-06T20:03:27.703Z,36.97
2019-02-06T20:06:43.174Z,35.67
2019-02-06T20:09:58.431Z,36.57
2019-02-06T20:13:14.729Z,42.47
2019-02-06T20:16:29.955Z,34.93
2019-02-06T20:19:45.299Z,32.70
2019-02-06T20:23:00.450Z,39.43
2019-02-06T20:26:15.800Z,34.33
2019-02-06T20:29:31.052Z,35.47
2019-02-06T20:32:46.403Z,40.47
2019-02-06T20:36:01.756Z,48.43
2019-02-06T20:39:17.311Z,39.00
2019-02-06T20:42:32.672Z,36.67
2019-02-06T20:45:48.120Z,37.53
2019-02-06T20:49:03.267Z,39.17
2019-02-06T20:52:18.763Z,42.97
2019-02-06T20:55:33.864Z,45.37
2019-02-06T20:58:49.125Z,31.20
2019-02-06T21:02:04.568Z,33.43
2019-02-06T21:05:20.238Z,30.73
2019-02-06T21:08:35.490Z,30.03
2019-02-06T21:11:50.952Z,36.60
2019-02-06T21:15:06.906Z,33.47
2019-02-06T21:18:22.763Z,34.00
2019-02-06T21:21:38.142Z,35.07
2019-02-06T21:24:53.575Z,37.80
2019-02-06T21:28:09.034Z,31.57
2019-02-06T21:31:24.490Z,33.90
2019-02-06T21:34:39.756Z,34.70
2019-02-06T21:37:55.301Z,33.27
2019-02-06T21:41:10.550Z,33.77
2019-02-06T21:44:26.108Z,35.03
2019-02-06T21:47:41.255Z,33.27
2019-02-06T21:50:57.586Z,29.93
2019-02-06T21:54:12.688Z,29.07
2019-02-06T21:57:28.030Z,29.20
2019-02-06T22:00:43.264Z,28.23
2019-02-06T22:03:58.978Z,30.53
2019-02-06T22:07:14.398Z,33.47
2019-02-06T22:10:29.646Z,34.77
2019-02-06T22:13:54.636Z,27.70
2019-02-06T22:17:02.302Z,27.67
2019-02-06T22:20:17.954Z,28.73
2019-02-06T22:23:33.534Z,30.07
2019-02-06T22:26:48.866Z,30.23
2019-02-06T22:30:04.819Z,27.70
2019-02-06T22:33:21.317Z,31.97
2019-02-06T22:36:37.071Z,34.40
2019-02-06T22:39:52.328Z,33.50
2019-02-06T22:43:07.676Z,29.27
2019-02-06T22:46:22.818Z,29.80
2019-02-06T22:49:38.382Z,29.20
2019-02-06T22:52:53.729Z,30.47
2019-02-06T22:56:08.968Z,34.13
2019-02-06T22:59:24.341Z,49.20
2019-02-06T23:02:39.467Z,39.07
2019-02-06T23:05:55.149Z,35.80
2019-02-06T23:09:10.694Z,30.03
2019-02-06T23:12:27.420Z,28.23
2019-02-06T23:15:42.800Z,26.43
2019-02-06T23:18:58.096Z,24.17
2019-02-06T23:22:13.445Z,26.10
2019-02-06T23:25:29.006Z,54.00
2019-02-06T23:28:44.265Z,53.83
2019-02-06T23:31:59.612Z,45.03
2019-02-06T23:35:15.259Z,34.07
2019-02-06T23:38:30.732Z,24.73
2019-02-06T23:41:45.971Z,23.07
2019-02-06T23:45:01.640Z,20.97
2019-02-06T23:48:17.089Z,23.40
2019-02-06T23:51:32.546Z,24.23
2019-02-06T23:54:48.000Z,25.20
2019-02-06T23:58:03.156Z,27.57
